sensor_id;sensor_type;location;lat;lon;timestamp;temperature;humidity
20066;DHT22;10193;48.884;9.182;2022-12-18T00:02:14;-5.50;62.20
20066;DHT22;10193;48.884;9.182;2022-12-18T00:04:40;-5.50;62.40
20066;DHT22;10193;48.884;9.182;2022-12-18T00:07:07;-5.50;62.40
20066;DHT22;10193;48.884;9.182;2022-12-18T00:09:34;-5.50;62.40
20066;DHT22;10193;48.884;9.182;2022-12-18T00:12:00;-5.50;62.50
20066;DHT22;10193;48.884;9.182;2022-12-18T00:14:28;-5.50;62.50
20066;DHT22;10193;48.884;9.182;2022-12-18T00:16:55;-5.50;62.60
20066;DHT22;10193;48.884;9.182;2022-12-18T00:19:23;-5.50;62.60
20066;DHT22;10193;48.884;9.182;2022-12-18T00:21:50;-5.50;62.50
20066;DHT22;10193;48.884;9.182;2022-12-18T00:24:17;-5.50;62.40
20066;DHT22;10193;48.884;9.182;2022-12-18T00:26:44;-5.50;62.40
20066;DHT22;10193;48.884;9.182;2022-12-18T00:29:13;-5.50;62.40
20066;DHT22;10193;48.884;9.182;2022-12-18T00:31:42;-5.50;62.40
20066;DHT22;10193;48.884;9.182;2022-12-18T00:34:10;-5.60;62.10
20066;DHT22;10193;48.884;9.182;2022-12-18T00:36:38;-5.60;62.20
20066;DHT22;10193;48.884;9.182;2022-12-18T00:39:05;-5.60;62.20
20066;DHT22;10193;48.884;9.182;2022-12-18T00:41:32;-5.60;63.00
20066;DHT22;10193;48.884;9.182;2022-12-18T00:44:18;-5.60;62.40
20066;DHT22;10193;48.884;9.182;2022-12-18T00:46:47;-5.60;62.30
20066;DHT22;10193;48.884;9.182;2022-12-18T00:49:15;-5.70;62.20
20066;DHT22;10193;48.884;9.182;2022-12-18T00:51:41;-5.70;62.20
20066;DHT22;10193;48.884;9.182;2022-12-18T00:54:08;-5.70;62.10
20066;DHT22;10193;48.884;9.182;2022-12-18T00:56:36;-5.70;62.00
20066;DHT22;10193;48.884;9.182;2022-12-18T00:59:03;-5.70;62.10
20066;DHT22;10193;48.884;9.182;2022-12-18T01:01:30;-5.80;61.90
20066;DHT22;10193;48.884;9.182;2022-12-18T01:04:01;-5.80;61.90
20066;DHT22;10193;48.884;9.182;2022-12-18T01:06:28;-5.80;61.90
20066;DHT22;10193;48.884;9.182;2022-12-18T01:08:54;-5.80;62.00
20066;DHT22;10193;48.884;9.182;2022-12-18T01:11:22;-5.80;61.90
20066;DHT22;10193;48.884;9.182;2022-12-18T01:13:49;-5.70;62.20
20066;DHT22;10193;48.884;9.182;2022-12-18T01:16:17;-5.80;61.80
20066;DHT22;10193;48.884;9.182;2022-12-18T01:18:44;-5.90;61.80
20066;DHT22;10193;48.884;9.182;2022-12-18T01:21:14;-5.90;61.70
20066;DHT22;10193;48.884;9.182;2022-12-18T01:23:41;-6.00;61.70
20066;DHT22;10193;48.884;9.182;2022-12-18T01:26:10;-6.00;61.80
20066;DHT22;10193;48.884;9.182;2022-12-18T01:28:37;-6.00;61.90
20066;DHT22;10193;48.884;9.182;2022-12-18T01:31:15;-6.00;61.90
20066;DHT22;10193;48.884;9.182;2022-12-18T01:33:42;-6.10;61.80
20066;DHT22;10193;48.884;9.182;2022-12-18T01:36:16;-6.10;61.80
20066;DHT22;10193;48.884;9.182;2022-12-18T01:38:43;-6.10;61.90
20066;DHT22;10193;48.884;9.182;2022-12-18T01:41:10;-6.10;61.80
20066;DHT22;10193;48.884;9.182;2022-12-18T01:43:52;-6.10;61.80
20066;DHT22;10193;48.884;9.182;2022-12-18T01:46:20;-6.10;61.90
20066;DHT22;10193;48.884;9.182;2022-12-18T01:48:49;-6.10;62.00
20066;DHT22;10193;48.884;9.182;2022-12-18T01:51:17;-6.10;62.00
20066;DHT22;10193;48.884;9.182;2022-12-18T01:53:45;-6.20;62.00
20066;DHT22;10193;48.884;9.182;2022-12-18T01:56:17;-6.20;62.00
20066;DHT22;10193;48.884;9.182;2022-12-18T01:58:50;-6.20;62.10
20066;DHT22;10193;48.884;9.182;2022-12-18T02:01:18;-6.20;62.10
20066;DHT22;10193;48.884;9.182;2022-12-18T02:03:46;-6.10;62.20
20066;DHT22;10193;48.884;9.182;2022-12-18T02:06:17;-6.10;62.20
20066;DHT22;10193;48.884;9.182;2022-12-18T02:08:59;-6.10;62.30
20066;DHT22;10193;48.884;9.182;2022-12-18T02:11:33;-6.10;62.40
20066;DHT22;10193;48.884;9.182;2022-12-18T02:14:10;-6.10;62.40
20066;DHT22;10193;48.884;9.182;2022-12-18T02:16:45;-6.10;62.40
20066;DHT22;10193;48.884;9.182;2022-12-18T02:19:23;-6.10;62.40
20066;DHT22;10193;48.884;9.182;2022-12-18T02:22:03;-6.10;62.40
20066;DHT22;10193;48.884;9.182;2022-12-18T02:24:37;-6.10;62.50
20066;DHT22;10193;48.884;9.182;2022-12-18T02:27:09;-6.10;62.40
20066;DHT22;10193;48.884;9.182;2022-12-18T02:29:39;-6.10;62.40
20066;DHT22;10193;48.884;9.182;2022-12-18T02:32:10;-6.10;62.40
20066;DHT22;10193;48.884;9.182;2022-12-18T02:34:39;-6.10;62.40
20066;DHT22;10193;48.884;9.182;2022-12-18T02:37:10;-6.00;62.60
20066;DHT22;10193;48.884;9.182;2022-12-18T02:39:40;-6.10;62.40
20066;DHT22;10193;48.884;9.182;2022-12-18T02:42:10;-6.00;62.50
20066;DHT22;10193;48.884;9.182;2022-12-18T02:44:42;-6.00;62.60
20066;DHT22;10193;48.884;9.182;2022-12-18T02:47:10;-6.00;62.50
20066;DHT22;10193;48.884;9.182;2022-12-18T02:49:44;-6.00;62.50
20066;DHT22;10193;48.884;9.182;2022-12-18T02:52:18;-6.00;62.60
20066;DHT22;10193;48.884;9.182;2022-12-18T02:54:55;-6.00;62.60
20066;DHT22;10193;48.884;9.182;2022-12-18T02:57:33;-6.00;62.60
20066;DHT22;10193;48.884;9.182;2022-12-18T03:00:04;-6.00;62.60
20066;DHT22;10193;48.884;9.182;2022-12-18T03:02:36;-6.00;62.60
20066;DHT22;10193;48.884;9.182;2022-12-18T03:05:09;-5.90;62.60
20066;DHT22;10193;48.884;9.182;2022-12-18T03:07:40;-5.90;62.50
20066;DHT22;10193;48.884;9.182;2022-12-18T03:10:12;-5.90;62.50
20066;DHT22;10193;48.884;9.182;2022-12-18T03:12:43;-5.90;62.60
20066;DHT22;10193;48.884;9.182;2022-12-18T03:15:13;-5.90;62.60
20066;DHT22;10193;48.884;9.182;2022-12-18T03:17:44;-5.90;62.60
20066;DHT22;10193;48.884;9.182;2022-12-18T03:20:14;-5.90;62.60
20066;DHT22;10193;48.884;9.182;2022-12-18T03:22:45;-5.90;62.70
20066;DHT22;10193;48.884;9.182;2022-12-18T03:25:14;-5.90;62.70
20066;DHT22;10193;48.884;9.182;2022-12-18T03:27:47;-5.90;62.70
20066;DHT22;10193;48.884;9.182;2022-12-18T03:30:16;-5.80;62.70
20066;DHT22;10193;48.884;9.182;2022-12-18T03:32:50;-5.80;62.60
20066;DHT22;10193;48.884;9.182;2022-12-18T03:35:22;-5.80;62.50
20066;DHT22;10193;48.884;9.182;2022-12-18T03:37:49;-5.80;62.40
20066;DHT22;10193;48.884;9.182;2022-12-18T03:40:16;-5.90;62.30
20066;DHT22;10193;48.884;9.182;2022-12-18T03:42:48;-5.80;62.40
20066;DHT22;10193;48.884;9.182;2022-12-18T03:45:22;-5.90;62.40
20066;DHT22;10193;48.884;9.182;2022-12-18T03:47:58;-5.80;62.40
20066;DHT22;10193;48.884;9.182;2022-12-18T03:50:33;-5.90;62.30
20066;DHT22;10193;48.884;9.182;2022-12-18T03:53:09;-5.90;62.20
20066;DHT22;10193;48.884;9.182;2022-12-18T03:55:39;-5.90;62.20
20066;DHT22;10193;48.884;9.182;2022-12-18T03:58:08;-5.90;62.20
20066;DHT22;10193;48.884;9.182;2022-12-18T04:00:36;-5.90;62.20
20066;DHT22;10193;48.884;9.182;2022-12-18T04:03:04;-5.90;62.20
20066;DHT22;10193;48.884;9.182;2022-12-18T04:05:33;-5.90;62.30
20066;DHT22;10193;48.884;9.182;2022-12-18T04:08:01;-6.00;62.20
20066;DHT22;10193;48.884;9.182;2022-12-18T04:10:28;-5.90;62.30
20066;DHT22;10193;48.884;9.182;2022-12-18T04:12:56;-6.00;62.20
20066;DHT22;10193;48.884;9.182;2022-12-18T04:15:24;-6.00;62.10
20066;DHT22;10193;48.884;9.182;2022-12-18T04:17:51;-6.00;62.00
20066;DHT22;10193;48.884;9.182;2022-12-18T04:20:18;-6.00;61.90
20066;DHT22;10193;48.884;9.182;2022-12-18T04:22:45;-6.00;61.90
20066;DHT22;10193;48.884;9.182;2022-12-18T04:25:12;-6.00;61.90
20066;DHT22;10193;48.884;9.182;2022-12-18T04:27:38;-6.00;61.90
20066;DHT22;10193;48.884;9.182;2022-12-18T04:30:06;-6.10;61.80
20066;DHT22;10193;48.884;9.182;2022-12-18T04:32:35;-6.10;61.70
20066;DHT22;10193;48.884;9.182;2022-12-18T04:35:02;-6.10;61.50
20066;DHT22;10193;48.884;9.182;2022-12-18T04:37:29;-6.20;61.40
20066;DHT22;10193;48.884;9.182;2022-12-18T04:39:56;-6.20;61.40
20066;DHT22;10193;48.884;9.182;2022-12-18T04:42:22;-6.20;61.40
20066;DHT22;10193;48.884;9.182;2022-12-18T04:44:49;-6.20;61.60
20066;DHT22;10193;48.884;9.182;2022-12-18T04:47:16;-6.30;61.50
20066;DHT22;10193;48.884;9.182;2022-12-18T04:49:44;-6.30;61.50
20066;DHT22;10193;48.884;9.182;2022-12-18T04:52:10;-6.30;61.50
20066;DHT22;10193;48.884;9.182;2022-12-18T04:54:37;-6.40;61.50
20066;DHT22;10193;48.884;9.182;2022-12-18T04:57:04;-6.40;61.60
20066;DHT22;10193;48.884;9.182;2022-12-18T04:59:30;-6.30;61.70
20066;DHT22;10193;48.884;9.182;2022-12-18T05:01:57;-6.40;61.60
20066;DHT22;10193;48.884;9.182;2022-12-18T05:04:24;-6.40;61.60
20066;DHT22;10193;48.884;9.182;2022-12-18T05:06:52;-6.40;61.70
20066;DHT22;10193;48.884;9.182;2022-12-18T05:09:18;-6.40;61.80
20066;DHT22;10193;48.884;9.182;2022-12-18T05:11:45;-6.40;61.80
20066;DHT22;10193;48.884;9.182;2022-12-18T05:14:12;-6.40;61.90
20066;DHT22;10193;48.884;9.182;2022-12-18T05:16:39;-6.40;61.80
20066;DHT22;10193;48.884;9.182;2022-12-18T05:19:05;-6.50;62.50
20066;DHT22;10193;48.884;9.182;2022-12-18T05:21:32;-6.50;61.80
20066;DHT22;10193;48.884;9.182;2022-12-18T05:24:00;-6.40;61.90
20066;DHT22;10193;48.884;9.182;2022-12-18T05:26:26;-6.50;61.70
20066;DHT22;10193;48.884;9.182;2022-12-18T05:28:56;-6.50;61.70
20066;DHT22;10193;48.884;9.182;2022-12-18T05:31:23;-6.50;61.70
20066;DHT22;10193;48.884;9.182;2022-12-18T05:33:50;-6.50;61.80
20066;DHT22;10193;48.884;9.182;2022-12-18T05:36:16;-6.50;61.70
20066;DHT22;10193;48.884;9.182;2022-12-18T05:38:43;-6.50;61.70
20066;DHT22;10193;48.884;9.182;2022-12-18T05:41:11;-6.50;61.70
20066;DHT22;10193;48.884;9.182;2022-12-18T05:43:40;-6.50;61.70
20066;DHT22;10193;48.884;9.182;2022-12-18T05:46:10;-6.50;61.70
20066;DHT22;10193;48.884;9.182;2022-12-18T05:48:37;-6.50;61.70
20066;DHT22;10193;48.884;9.182;2022-12-18T05:51:06;-6.60;61.50
20066;DHT22;10193;48.884;9.182;2022-12-18T05:53:33;-6.60;61.60
20066;DHT22;10193;48.884;9.182;2022-12-18T05:56:02;-6.60;61.60
20066;DHT22;10193;48.884;9.182;2022-12-18T05:58:30;-6.60;61.60
20066;DHT22;10193;48.884;9.182;2022-12-18T06:00:58;-6.60;61.60
20066;DHT22;10193;48.884;9.182;2022-12-18T06:03:31;-6.60;61.60
20066;DHT22;10193;48.884;9.182;2022-12-18T06:05:58;-6.60;61.60
20066;DHT22;10193;48.884;9.182;2022-12-18T06:08:24;-6.70;61.50
20066;DHT22;10193;48.884;9.182;2022-12-18T06:10:52;-6.70;61.50
20066;DHT22;10193;48.884;9.182;2022-12-18T06:13:19;-6.60;61.60
20066;DHT22;10193;48.884;9.182;2022-12-18T06:15:47;-6.70;61.50
20066;DHT22;10193;48.884;9.182;2022-12-18T06:18:14;-6.70;61.40
20066;DHT22;10193;48.884;9.182;2022-12-18T06:20:40;-6.70;61.40
20066;DHT22;10193;48.884;9.182;2022-12-18T06:23:07;-6.70;61.40
20066;DHT22;10193;48.884;9.182;2022-12-18T06:25:37;-6.80;61.30
20066;DHT22;10193;48.884;9.182;2022-12-18T06:28:04;-6.80;61.40
20066;DHT22;10193;48.884;9.182;2022-12-18T06:30:31;-6.80;61.30
20066;DHT22;10193;48.884;9.182;2022-12-18T06:32:59;-6.80;61.30
20066;DHT22;10193;48.884;9.182;2022-12-18T06:35:26;-6.80;61.30
20066;DHT22;10193;48.884;9.182;2022-12-18T06:37:52;-6.80;61.30
20066;DHT22;10193;48.884;9.182;2022-12-18T06:40:19;-6.80;61.30
20066;DHT22;10193;48.884;9.182;2022-12-18T06:42:45;-6.90;61.30
20066;DHT22;10193;48.884;9.182;2022-12-18T06:45:15;-6.90;61.30
20066;DHT22;10193;48.884;9.182;2022-12-18T06:47:42;-6.90;61.30
20066;DHT22;10193;48.884;9.182;2022-12-18T06:50:10;-6.90;61.30
20066;DHT22;10193;48.884;9.182;2022-12-18T06:52:37;-6.90;61.40
20066;DHT22;10193;48.884;9.182;2022-12-18T06:55:05;-6.90;61.30
20066;DHT22;10193;48.884;9.182;2022-12-18T06:57:32;-6.90;61.30
20066;DHT22;10193;48.884;9.182;2022-12-18T06:59:58;-6.90;61.30
20066;DHT22;10193;48.884;9.182;2022-12-18T07:02:25;-6.90;61.40
20066;DHT22;10193;48.884;9.182;2022-12-18T07:04:52;-6.90;61.40
20066;DHT22;10193;48.884;9.182;2022-12-18T07:07:20;-7.00;61.30
20066;DHT22;10193;48.884;9.182;2022-12-18T07:09:46;-7.00;61.30
20066;DHT22;10193;48.884;9.182;2022-12-18T07:12:14;-7.00;61.50
20066;DHT22;10193;48.884;9.182;2022-12-18T07:14:41;-6.90;61.60
20066;DHT22;10193;48.884;9.182;2022-12-18T07:17:08;-6.90;61.70
20066;DHT22;10193;48.884;9.182;2022-12-18T07:19:34;-6.90;61.60
20066;DHT22;10193;48.884;9.182;2022-12-18T07:22:01;-6.90;61.70
20066;DHT22;10193;48.884;9.182;2022-12-18T07:24:29;-6.90;61.70
20066;DHT22;10193;48.884;9.182;2022-12-18T07:26:56;-6.90;61.70
20066;DHT22;10193;48.884;9.182;2022-12-18T07:29:23;-6.90;61.80
20066;DHT22;10193;48.884;9.182;2022-12-18T07:31:50;-6.90;61.80
20066;DHT22;10193;48.884;9.182;2022-12-18T07:34:16;-6.90;61.80
20066;DHT22;10193;48.884;9.182;2022-12-18T07:36:43;-6.90;61.80
20066;DHT22;10193;48.884;9.182;2022-12-18T07:39:10;-6.80;62.00
20066;DHT22;10193;48.884;9.182;2022-12-18T07:41:39;-6.80;62.00
20066;DHT22;10193;48.884;9.182;2022-12-18T07:44:09;-6.80;62.00
20066;DHT22;10193;48.884;9.182;2022-12-18T07:46:35;-6.80;62.10
20066;DHT22;10193;48.884;9.182;2022-12-18T07:49:02;-6.70;62.20
20066;DHT22;10193;48.884;9.182;2022-12-18T07:51:29;-6.70;62.20
20066;DHT22;10193;48.884;9.182;2022-12-18T07:53:56;-6.70;62.20
20066;DHT22;10193;48.884;9.182;2022-12-18T07:56:23;-6.60;62.20
20066;DHT22;10193;48.884;9.182;2022-12-18T07:58:51;-6.60;62.20
20066;DHT22;10193;48.884;9.182;2022-12-18T08:01:17;-6.60;62.20
20066;DHT22;10193;48.884;9.182;2022-12-18T08:03:44;-6.60;62.20
20066;DHT22;10193;48.884;9.182;2022-12-18T08:06:11;-6.50;62.40
20066;DHT22;10193;48.884;9.182;2022-12-18T08:08:37;-6.50;62.30
20066;DHT22;10193;48.884;9.182;2022-12-18T08:11:05;-6.50;62.30
20066;DHT22;10193;48.884;9.182;2022-12-18T08:13:32;-6.50;62.20
20066;DHT22;10193;48.884;9.182;2022-12-18T08:16:02;-6.50;62.20
20066;DHT22;10193;48.884;9.182;2022-12-18T08:18:29;-6.40;62.40
20066;DHT22;10193;48.884;9.182;2022-12-18T08:20:56;-6.40;62.30
20066;DHT22;10193;48.884;9.182;2022-12-18T08:23:23;-6.40;62.30
20066;DHT22;10193;48.884;9.182;2022-12-18T08:25:49;-6.40;62.40
20066;DHT22;10193;48.884;9.182;2022-12-18T08:28:16;-6.30;62.50
20066;DHT22;10193;48.884;9.182;2022-12-18T08:30:43;-6.30;62.50
20066;DHT22;10193;48.884;9.182;2022-12-18T08:33:11;-6.30;62.50
20066;DHT22;10193;48.884;9.182;2022-12-18T08:35:38;-6.20;62.60
20066;DHT22;10193;48.884;9.182;2022-12-18T08:38:05;-6.10;62.70
20066;DHT22;10193;48.884;9.182;2022-12-18T08:40:31;-6.20;62.70
20066;DHT22;10193;48.884;9.182;2022-12-18T08:42:58;-6.20;62.70
20066;DHT22;10193;48.884;9.182;2022-12-18T08:45:42;-6.10;62.80
20066;DHT22;10193;48.884;9.182;2022-12-18T08:48:11;-6.10;62.80
20066;DHT22;10193;48.884;9.182;2022-12-18T08:50:37;-6.00;63.00
20066;DHT22;10193;48.884;9.182;2022-12-18T08:53:04;-6.00;63.00
20066;DHT22;10193;48.884;9.182;2022-12-18T08:55:31;-5.90;63.10
20066;DHT22;10193;48.884;9.182;2022-12-18T08:57:57;-5.80;63.20
20066;DHT22;10193;48.884;9.182;2022-12-18T09:00:24;-5.80;63.20
20066;DHT22;10193;48.884;9.182;2022-12-18T09:02:51;-5.80;63.30
20066;DHT22;10193;48.884;9.182;2022-12-18T09:05:18;-5.70;63.20
20066;DHT22;10193;48.884;9.182;2022-12-18T09:07:45;-5.70;63.30
20066;DHT22;10193;48.884;9.182;2022-12-18T09:10:12;-5.60;63.40
20066;DHT22;10193;48.884;9.182;2022-12-18T09:12:39;-5.60;63.40
20066;DHT22;10193;48.884;9.182;2022-12-18T09:15:06;-5.50;63.70
20066;DHT22;10193;48.884;9.182;2022-12-18T09:17:33;-5.50;63.60
20066;DHT22;10193;48.884;9.182;2022-12-18T09:19:59;-5.40;63.80
20066;DHT22;10193;48.884;9.182;2022-12-18T09:22:27;-5.30;63.90
20066;DHT22;10193;48.884;9.182;2022-12-18T09:24:54;-5.30;63.90
20066;DHT22;10193;48.884;9.182;2022-12-18T09:27:21;-5.20;63.90
20066;DHT22;10193;48.884;9.182;2022-12-18T09:29:47;-5.20;63.90
20066;DHT22;10193;48.884;9.182;2022-12-18T09:32:14;-5.10;64.00
20066;DHT22;10193;48.884;9.182;2022-12-18T09:34:41;-5.00;64.00
20066;DHT22;10193;48.884;9.182;2022-12-18T09:37:07;-4.90;64.20
20066;DHT22;10193;48.884;9.182;2022-12-18T09:39:39;-4.90;64.20
20066;DHT22;10193;48.884;9.182;2022-12-18T09:42:06;-4.90;64.20
20066;DHT22;10193;48.884;9.182;2022-12-18T09:44:41;-4.80;64.40
20066;DHT22;10193;48.884;9.182;2022-12-18T09:47:13;-4.70;64.40
20066;DHT22;10193;48.884;9.182;2022-12-18T09:49:44;-4.60;64.30
20066;DHT22;10193;48.884;9.182;2022-12-18T09:52:16;-4.60;64.40
20066;DHT22;10193;48.884;9.182;2022-12-18T09:54:48;-4.50;64.50
20066;DHT22;10193;48.884;9.182;2022-12-18T09:57:19;-4.40;64.60
20066;DHT22;10193;48.884;9.182;2022-12-18T09:59:51;-4.40;65.30
20066;DHT22;10193;48.884;9.182;2022-12-18T10:02:21;-4.30;64.60
20066;DHT22;10193;48.884;9.182;2022-12-18T10:04:54;-4.30;64.60
20066;DHT22;10193;48.884;9.182;2022-12-18T10:07:28;-4.20;64.80
20066;DHT22;10193;48.884;9.182;2022-12-18T10:10:02;-4.10;64.80
20066;DHT22;10193;48.884;9.182;2022-12-18T10:12:34;-4.10;64.80
20066;DHT22;10193;48.884;9.182;2022-12-18T10:15:07;-4.00;64.80
20066;DHT22;10193;48.884;9.182;2022-12-18T10:17:42;-4.00;64.80
20066;DHT22;10193;48.884;9.182;2022-12-18T10:20:13;-3.80;65.10
20066;DHT22;10193;48.884;9.182;2022-12-18T10:22:50;-3.80;65.20
20066;DHT22;10193;48.884;9.182;2022-12-18T10:25:25;-3.70;65.30
20066;DHT22;10193;48.884;9.182;2022-12-18T10:27:56;-3.70;65.20
20066;DHT22;10193;48.884;9.182;2022-12-18T10:30:25;-3.50;65.40
20066;DHT22;10193;48.884;9.182;2022-12-18T10:32:52;-3.50;65.40
20066;DHT22;10193;48.884;9.182;2022-12-18T10:35:22;-3.40;65.40
20066;DHT22;10193;48.884;9.182;2022-12-18T10:38:06;-3.30;65.50
20066;DHT22;10193;48.884;9.182;2022-12-18T10:40:48;-3.30;65.40
20066;DHT22;10193;48.884;9.182;2022-12-18T10:43:16;-3.20;65.40
20066;DHT22;10193;48.884;9.182;2022-12-18T10:45:59;-3.00;65.60
20066;DHT22;10193;48.884;9.182;2022-12-18T10:48:26;-3.10;65.50
20066;DHT22;10193;48.884;9.182;2022-12-18T10:50:54;-3.00;65.70
20066;DHT22;10193;48.884;9.182;2022-12-18T10:53:23;-2.90;65.60
20066;DHT22;10193;48.884;9.182;2022-12-18T10:55:53;-2.90;65.60
20066;DHT22;10193;48.884;9.182;2022-12-18T10:58:24;-2.80;65.70
20066;DHT22;10193;48.884;9.182;2022-12-18T11:01:07;-2.70;65.80
20066;DHT22;10193;48.884;9.182;2022-12-18T11:03:35;-2.60;65.90
20066;DHT22;10193;48.884;9.182;2022-12-18T11:06:05;-2.60;66.00
20066;DHT22;10193;48.884;9.182;2022-12-18T11:08:32;-2.50;66.00
20066;DHT22;10193;48.884;9.182;2022-12-18T11:11:00;-2.40;66.10
20066;DHT22;10193;48.884;9.182;2022-12-18T11:13:29;-2.30;66.10
20066;DHT22;10193;48.884;9.182;2022-12-18T11:15:57;-2.30;66.10
20066;DHT22;10193;48.884;9.182;2022-12-18T11:18:26;-2.20;66.10
20066;DHT22;10193;48.884;9.182;2022-12-18T11:20:56;-2.10;66.20
20066;DHT22;10193;48.884;9.182;2022-12-18T11:23:24;-2.10;66.20
20066;DHT22;10193;48.884;9.182;2022-12-18T11:25:53;-1.90;66.40
20066;DHT22;10193;48.884;9.182;2022-12-18T11:28:38;-1.90;66.30
20066;DHT22;10193;48.884;9.182;2022-12-18T11:31:22;-1.80;66.30
20066;DHT22;10193;48.884;9.182;2022-12-18T11:34:02;-1.70;66.30
20066;DHT22;10193;48.884;9.182;2022-12-18T11:36:34;-1.60;66.30
20066;DHT22;10193;48.884;9.182;2022-12-18T11:39:11;-1.60;66.10
20066;DHT22;10193;48.884;9.182;2022-12-18T11:41:43;-1.50;66.00
20066;DHT22;10193;48.884;9.182;2022-12-18T11:44:36;-1.40;65.90
20066;DHT22;10193;48.884;9.182;2022-12-18T11:47:11;-1.40;65.80
20066;DHT22;10193;48.884;9.182;2022-12-18T11:49:41;-1.30;65.90
20066;DHT22;10193;48.884;9.182;2022-12-18T11:52:15;-1.30;65.80
20066;DHT22;10193;48.884;9.182;2022-12-18T11:54:42;-1.30;65.80
20066;DHT22;10193;48.884;9.182;2022-12-18T11:57:18;-1.20;65.90
20066;DHT22;10193;48.884;9.182;2022-12-18T11:59:58;-1.20;65.90
20066;DHT22;10193;48.884;9.182;2022-12-18T12:02:46;-1.10;66.00
20066;DHT22;10193;48.884;9.182;2022-12-18T12:05:29;-1.10;65.90
20066;DHT22;10193;48.884;9.182;2022-12-18T12:08:02;-1.00;65.90
20066;DHT22;10193;48.884;9.182;2022-12-18T12:10:42;-1.00;65.70
20066;DHT22;10193;48.884;9.182;2022-12-18T12:13:21;-0.90;65.80
20066;DHT22;10193;48.884;9.182;2022-12-18T12:16:02;-0.90;65.70
20066;DHT22;10193;48.884;9.182;2022-12-18T12:18:42;-0.90;65.70
20066;DHT22;10193;48.884;9.182;2022-12-18T12:21:14;-0.80;65.80
20066;DHT22;10193;48.884;9.182;2022-12-18T12:23:48;-0.80;65.90
20066;DHT22;10193;48.884;9.182;2022-12-18T12:26:24;-0.70;66.00
20066;DHT22;10193;48.884;9.182;2022-12-18T12:29:07;-0.70;66.00
20066;DHT22;10193;48.884;9.182;2022-12-18T12:31:55;-0.60;66.20
20066;DHT22;10193;48.884;9.182;2022-12-18T12:34:29;-0.60;66.30
20066;DHT22;10193;48.884;9.182;2022-12-18T12:37:11;-0.50;66.50
20066;DHT22;10193;48.884;9.182;2022-12-18T12:39:44;-0.40;66.60
20066;DHT22;10193;48.884;9.182;2022-12-18T12:42:17;-0.40;66.50
20066;DHT22;10193;48.884;9.182;2022-12-18T12:45:05;-0.30;66.50
20066;DHT22;10193;48.884;9.182;2022-12-18T12:47:38;-0.20;66.40
20066;DHT22;10193;48.884;9.182;2022-12-18T12:50:14;-0.20;66.30
20066;DHT22;10193;48.884;9.182;2022-12-18T12:52:44;-0.10;66.30
20066;DHT22;10193;48.884;9.182;2022-12-18T12:55:16;-0.10;66.20
20066;DHT22;10193;48.884;9.182;2022-12-18T12:57:46;-0.10;66.20
20066;DHT22;10193;48.884;9.182;2022-12-18T13:00:16;0.00;66.30
20066;DHT22;10193;48.884;9.182;2022-12-18T13:02:49;0.00;66.30
20066;DHT22;10193;48.884;9.182;2022-12-18T13:05:21;0.10;66.30
20066;DHT22;10193;48.884;9.182;2022-12-18T13:07:51;0.10;66.20
20066;DHT22;10193;48.884;9.182;2022-12-18T13:10:30;0.20;66.20
20066;DHT22;10193;48.884;9.182;2022-12-18T13:13:01;0.30;66.20
20066;DHT22;10193;48.884;9.182;2022-12-18T13:15:32;0.30;66.20
20066;DHT22;10193;48.884;9.182;2022-12-18T13:18:14;0.30;66.10
20066;DHT22;10193;48.884;9.182;2022-12-18T13:20:43;0.40;66.00
20066;DHT22;10193;48.884;9.182;2022-12-18T13:23:28;0.40;66.00
20066;DHT22;10193;48.884;9.182;2022-12-18T13:25:56;0.50;66.00
20066;DHT22;10193;48.884;9.182;2022-12-18T13:28:26;0.50;66.00
20066;DHT22;10193;48.884;9.182;2022-12-18T13:31:11;0.50;65.90
20066;DHT22;10193;48.884;9.182;2022-12-18T13:33:42;0.60;65.90
20066;DHT22;10193;48.884;9.182;2022-12-18T13:36:25;0.60;65.80
20066;DHT22;10193;48.884;9.182;2022-12-18T13:39:11;0.60;65.60
20066;DHT22;10193;48.884;9.182;2022-12-18T13:41:38;0.60;65.30
20066;DHT22;10193;48.884;9.182;2022-12-18T13:44:12;0.60;65.30
20066;DHT22;10193;48.884;9.182;2022-12-18T13:46:43;0.60;65.20
20066;DHT22;10193;48.884;9.182;2022-12-18T13:49:22;0.60;65.20
20066;DHT22;10193;48.884;9.182;2022-12-18T13:51:50;0.60;65.20
20066;DHT22;10193;48.884;9.182;2022-12-18T13:54:20;0.60;65.20
20066;DHT22;10193;48.884;9.182;2022-12-18T13:56:50;0.60;65.20
20066;DHT22;10193;48.884;9.182;2022-12-18T13:59:20;0.60;65.20
20066;DHT22;10193;48.884;9.182;2022-12-18T14:01:50;0.60;65.20
20066;DHT22;10193;48.884;9.182;2022-12-18T14:04:22;0.60;65.30
20066;DHT22;10193;48.884;9.182;2022-12-18T14:06:52;0.60;65.30
20066;DHT22;10193;48.884;9.182;2022-12-18T14:09:24;0.60;65.20
20066;DHT22;10193;48.884;9.182;2022-12-18T14:11:52;0.60;65.10
20066;DHT22;10193;48.884;9.182;2022-12-18T14:14:41;0.60;65.10
20066;DHT22;10193;48.884;9.182;2022-12-18T14:17:10;0.60;65.00
20066;DHT22;10193;48.884;9.182;2022-12-18T14:19:41;0.60;64.90
20066;DHT22;10193;48.884;9.182;2022-12-18T14:22:15;0.60;64.80
20066;DHT22;10193;48.884;9.182;2022-12-18T14:24:42;0.50;64.60
20066;DHT22;10193;48.884;9.182;2022-12-18T14:27:20;0.50;64.60
20066;DHT22;10193;48.884;9.182;2022-12-18T14:29:48;0.50;64.70
20066;DHT22;10193;48.884;9.182;2022-12-18T14:32:16;0.50;64.60
20066;DHT22;10193;48.884;9.182;2022-12-18T14:34:45;0.40;64.50
20066;DHT22;10193;48.884;9.182;2022-12-18T14:37:14;0.40;64.40
20066;DHT22;10193;48.884;9.182;2022-12-18T14:39:55;0.40;64.40
20066;DHT22;10193;48.884;9.182;2022-12-18T14:42:23;0.30;64.30
20066;DHT22;10193;48.884;9.182;2022-12-18T14:47:54;0.30;64.30
20066;DHT22;10193;48.884;9.182;2022-12-18T14:50:22;0.20;64.10
20066;DHT22;10193;48.884;9.182;2022-12-18T14:52:50;0.20;64.10
20066;DHT22;10193;48.884;9.182;2022-12-18T14:55:17;0.20;64.20
20066;DHT22;10193;48.884;9.182;2022-12-18T14:57:44;0.20;64.20
20066;DHT22;10193;48.884;9.182;2022-12-18T15:00:16;0.10;64.00
20066;DHT22;10193;48.884;9.182;2022-12-18T15:02:45;0.10;64.00
20066;DHT22;10193;48.884;9.182;2022-12-18T15:05:18;0.00;63.90
20066;DHT22;10193;48.884;9.182;2022-12-18T15:07:48;-0.10;63.70
20066;DHT22;10193;48.884;9.182;2022-12-18T15:10:17;-0.10;63.70
20066;DHT22;10193;48.884;9.182;2022-12-18T15:12:45;-0.20;63.80
20066;DHT22;10193;48.884;9.182;2022-12-18T15:15:45;-0.20;63.80
20066;DHT22;10193;48.884;9.182;2022-12-18T15:18:13;-0.20;63.80
20066;DHT22;10193;48.884;9.182;2022-12-18T15:20:43;-0.30;63.80
20066;DHT22;10193;48.884;9.182;2022-12-18T15:23:16;-0.40;63.80
20066;DHT22;10193;48.884;9.182;2022-12-18T15:25:43;-0.40;63.80
20066;DHT22;10193;48.884;9.182;2022-12-18T15:28:19;-0.40;63.80
20066;DHT22;10193;48.884;9.182;2022-12-18T15:31:03;-0.40;63.80
20066;DHT22;10193;48.884;9.182;2022-12-18T15:33:32;-0.50;63.70
20066;DHT22;10193;48.884;9.182;2022-12-18T15:36:01;-0.60;63.60
20066;DHT22;10193;48.884;9.182;2022-12-18T15:38:30;-0.60;63.60
20066;DHT22;10193;48.884;9.182;2022-12-18T15:40:56;-0.60;63.70
20066;DHT22;10193;48.884;9.182;2022-12-18T15:43:24;-0.70;63.60
20066;DHT22;10193;48.884;9.182;2022-12-18T15:46:01;-0.70;63.70
20066;DHT22;10193;48.884;9.182;2022-12-18T15:48:28;-0.80;63.60
20066;DHT22;10193;48.884;9.182;2022-12-18T15:50:56;-0.80;63.60
20066;DHT22;10193;48.884;9.182;2022-12-18T15:53:24;-0.80;63.70
20066;DHT22;10193;48.884;9.182;2022-12-18T15:55:53;-0.90;63.60